sensor_id;sensor_type;location;lat;lon;timestamp;pressure;altitude;pressure_sealevel;temperature;humidity
50087;BME280;35967;50.718;7.050;2023-02-19T00:00:50;101090.84;;;10.65;100.00
50087;BME280;35967;50.718;7.050;2023-02-19T00:10:59;101098.53;;;10.68;100.00
50087;BME280;35967;50.718;7.050;2023-02-19T00:21:02;101084.84;;;10.65;100.00
50087;BME280;35967;50.718;7.050;2023-02-19T00:31:09;101087.28;;;10.72;100.00
50087;BME280;35967;50.718;7.050;2023-02-19T00:41:16;101074.47;;;10.69;100.00
50087;BME280;35967;50.718;7.050;2023-02-19T00:51:26;101073.94;;;10.46;100.00
50087;BME280;35967;50.718;7.050;2023-02-19T01:01:29;101070.50;;;10.47;100.00
50087;BME280;35967;50.718;7.050;2023-02-19T01:11:34;101054.28;;;10.41;100.00
50087;BME280;35967;50.718;7.050;2023-02-19T01:21:39;101063.69;;;10.44;100.00
50087;BME280;35967;50.718;7.050;2023-02-19T01:31:44;101039.59;;;10.50;100.00
50087;BME280;35967;50.718;7.050;2023-02-19T01:41:48;101025.88;;;10.49;100.00
50087;BME280;35967;50.718;7.050;2023-02-19T01:51:55;101037.88;;;10.49;100.00
50087;BME280;35967;50.718;7.050;2023-02-19T02:02:00;101047.31;;;10.50;100.00
50087;BME280;35967;50.718;7.050;2023-02-19T02:12:06;101040.75;;;10.25;100.00
50087;BME280;35967;50.718;7.050;2023-02-19T02:22:15;101047.44;;;10.40;100.00
50087;BME280;35967;50.718;7.050;2023-02-19T02:32:25;101047.44;;;10.40;100.00
50087;BME280;35967;50.718;7.050;2023-02-19T02:42:32;101037.88;;;10.49;100.00
50087;BME280;35967;50.718;7.050;2023-02-19T02:52:43;101033.63;;;10.46;100.00
50087;BME280;35967;50.718;7.050;2023-02-19T03:03:05;101032.97;;;10.30;100.00
50087;BME280;35967;50.718;7.050;2023-02-19T03:13:13;101031.97;;;10.42;100.00
50087;BME280;35967;50.718;7.050;2023-02-19T03:23:36;101039.78;;;10.37;100.00
50087;BME280;35967;50.718;7.050;2023-02-19T03:34:01;101056.13;;;10.32;100.00
50087;BME280;35967;50.718;7.050;2023-02-19T03:44:09;101057.16;;;10.20;100.00
50087;BME280;35967;50.718;7.050;2023-02-19T03:54:18;101075.84;;;10.31;100.00
50087;BME280;35967;50.718;7.050;2023-02-19T04:04:27;101084.53;;;10.24;100.00
50087;BME280;35967;50.718;7.050;2023-02-19T04:14:36;101092.28;;;10.22;100.00
50087;BME280;35967;50.718;7.050;2023-02-19T04:24:43;101101.06;;;10.06;100.00
50087;BME280;35967;50.718;7.050;2023-02-19T04:34:50;101112.19;;;10.08;100.00
50087;BME280;35967;50.718;7.050;2023-02-19T04:44:55;101106.16;;;10.10;100.00
50087;BME280;35967;50.718;7.050;2023-02-19T04:54:59;101134.47;;;10.07;100.00
50087;BME280;35967;50.718;7.050;2023-02-19T05:05:03;101125.06;;;10.08;100.00
50087;BME280;35967;50.718;7.050;2023-02-19T05:15:07;101140.53;;;10.03;100.00
50087;BME280;35967;50.718;7.050;2023-02-19T05:25:10;101146.56;;;9.99;100.00
50087;BME280;35967;50.718;7.050;2023-02-19T05:35:14;101150.88;;;9.99;100.00
50087;BME280;35967;50.718;7.050;2023-02-19T05:45:17;101172.34;;;9.96;100.00
50087;BME280;35967;50.718;7.050;2023-02-19T05:55:22;101185.22;;;9.93;100.00
50087;BME280;35967;50.718;7.050;2023-02-19T06:05:25;101200.78;;;9.82;100.00
50087;BME280;35967;50.718;7.050;2023-02-19T06:15:29;101221.47;;;9.68;100.00
50087;BME280;35967;50.718;7.050;2023-02-19T06:25:32;101220.53;;;9.75;100.00
50087;BME280;35967;50.718;7.050;2023-02-19T06:35:37;101238.63;;;9.66;100.00
50087;BME280;35967;50.718;7.050;2023-02-19T06:45:40;101236.94;;;9.63;100.00
50087;BME280;35967;50.718;7.050;2023-02-19T06:55:54;101251.53;;;9.63;100.00
50087;BME280;35967;50.718;7.050;2023-02-19T07:05:58;101266.06;;;9.66;100.00
50087;BME280;35967;50.718;7.050;2023-02-19T07:16:05;101285.66;;;9.79;100.00
50087;BME280;35967;50.718;7.050;2023-02-19T07:26:11;101296.00;;;9.71;100.00
50087;BME280;35967;50.718;7.050;2023-02-19T07:36:16;101309.78;;;9.61;100.00
50087;BME280;35967;50.718;7.050;2023-02-19T07:46:21;101336.31;;;9.65;100.00
50087;BME280;35967;50.718;7.050;2023-02-19T07:56:25;101348.31;;;9.62;100.00
50087;BME280;35967;50.718;7.050;2023-02-19T08:06:29;101368.03;;;9.67;100.00
50087;BME280;35967;50.718;7.050;2023-02-19T08:16:33;101368.13;;;9.50;100.00
50087;BME280;35967;50.718;7.050;2023-02-19T08:26:44;101395.50;;;9.57;100.00
50087;BME280;35967;50.718;7.050;2023-02-19T08:36:48;101402.34;;;9.58;100.00
50087;BME280;35967;50.718;7.050;2023-02-19T08:46:51;101425.41;;;9.67;100.00
50087;BME280;35967;50.718;7.050;2023-02-19T08:56:55;101418.44;;;9.88;100.00
50087;BME280;35967;50.718;7.050;2023-02-19T09:06:58;101428.72;;;9.92;100.00
50087;BME280;35967;50.718;7.050;2023-02-19T09:17:04;101429.50;;;9.99;100.00
50087;BME280;35967;50.718;7.050;2023-02-19T09:27:07;101432.06;;;10.02;100.00
50087;BME280;35967;50.718;7.050;2023-02-19T09:37:12;101443.94;;;10.16;98.93
50087;BME280;35967;50.718;7.050;2023-02-19T09:47:18;101461.88;;;10.28;98.27
50087;BME280;35967;50.718;7.050;2023-02-19T09:57:23;101469.59;;;10.26;96.84
50087;BME280;35967;50.718;7.050;2023-02-19T10:07:34;101485.06;;;10.23;97.42
50087;BME280;35967;50.718;7.050;2023-02-19T10:17:41;101485.91;;;10.24;96.83
50087;BME280;35967;50.718;7.050;2023-02-19T10:27:44;101501.97;;;10.58;96.47
50087;BME280;35967;50.718;7.050;2023-02-19T10:37:49;101524.56;;;10.18;98.07
50087;BME280;35967;50.718;7.050;2023-02-19T10:47:53;101527.13;;;10.18;98.89
50087;BME280;35967;50.718;7.050;2023-02-19T10:58:19;101561.47;;;10.10;99.58
50087;BME280;35967;50.718;7.050;2023-02-19T11:08:23;101576.13;;;10.01;100.00
50087;BME280;35967;50.718;7.050;2023-02-19T11:18:30;101589.00;;;9.96;100.00
50087;BME280;35967;50.718;7.050;2023-02-19T11:28:36;101606.88;;;10.18;100.00
50087;BME280;35967;50.718;7.050;2023-02-19T11:38:43;101603.41;;;10.30;100.00
50087;BME280;35967;50.718;7.050;2023-02-19T11:48:52;101599.13;;;10.24;100.00
50087;BME280;35967;50.718;7.050;2023-02-19T11:59:00;101586.06;;;10.61;99.81
50087;BME280;35967;50.718;7.050;2023-02-19T12:09:17;101586.06;;;10.63;100.00
50087;BME280;35967;50.718;7.050;2023-02-19T12:19:51;101583.63;;;10.35;100.00
50087;BME280;35967;50.718;7.050;2023-02-19T12:30:11;101585.44;;;10.20;100.00
50087;BME280;35967;50.718;7.050;2023-02-19T12:40:29;101576.13;;;9.93;100.00
50087;BME280;35967;50.718;7.050;2023-02-19T12:50:36;101582.13;;;9.92;100.00
50087;BME280;35967;50.718;7.050;2023-02-19T13:00:45;101582.81;;;10.33;100.00
50087;BME280;35967;50.718;7.050;2023-02-19T13:10:54;101586.25;;;10.25;100.00
50087;BME280;35967;50.718;7.050;2023-02-19T13:21:00;101589.59;;;10.43;97.45
50087;BME280;35967;50.718;7.050;2023-02-19T13:31:13;101606.69;;;10.58;96.15
50087;BME280;35967;50.718;7.050;2023-02-19T13:41:29;101608.38;;;10.64;93.99
50087;BME280;35967;50.718;7.050;2023-02-19T13:51:42;101599.00;;;10.53;93.09
50087;BME280;35967;50.718;7.050;2023-02-19T14:02:13;101628.16;;;10.55;92.88
50087;BME280;35967;50.718;7.050;2023-02-19T14:12:31;101620.34;;;10.69;92.32
50087;BME280;35967;50.718;7.050;2023-02-19T14:22:58;101637.69;;;10.43;91.04
50087;BME280;35967;50.718;7.050;2023-02-19T14:33:02;101657.41;;;10.44;91.61
50087;BME280;35967;50.718;7.050;2023-02-19T14:43:15;101669.41;;;10.34;92.47
50087;BME280;35967;50.718;7.050;2023-02-19T14:53:19;101690.91;;;10.37;87.93
50087;BME280;35967;50.718;7.050;2023-02-19T15:03:29;101690.88;;;10.31;88.06
50087;BME280;35967;50.718;7.050;2023-02-19T15:13:33;101699.50;;;10.21;89.25
50087;BME280;35967;50.718;7.050;2023-02-19T15:23:39;101668.69;;;10.04;89.68
50087;BME280;35967;50.718;7.050;2023-02-19T15:33:50;101660.06;;;10.16;89.73
50087;BME280;35967;50.718;7.050;2023-02-19T15:44:00;101649.75;;;10.22;90.73
50087;BME280;35967;50.718;7.050;2023-02-19T15:54:13;101621.50;;;10.17;90.87
50087;BME280;35967;50.718;7.050;2023-02-19T16:04:20;101625.81;;;10.01;89.49
50087;BME280;35967;50.718;7.050;2023-02-19T16:14:29;101640.38;;;10.07;88.81
50087;BME280;35967;50.718;7.050;2023-02-19T16:24:36;101641.28;;;10.00;88.83
50087;BME280;35967;50.718;7.050;2023-02-19T16:34:43;101651.56;;;9.93;88.83
50087;BME280;35967;50.718;7.050;2023-02-19T16:44:49;101678.09;;;10.06;88.61
50087;BME280;35967;50.718;7.050;2023-02-19T16:54:52;101686.72;;;10.05;89.06
50087;BME280;35967;50.718;7.050;2023-02-19T17:04:56;101708.19;;;9.90;88.19
50087;BME280;35967;50.718;7.050;2023-02-19T17:14:59;101728.75;;;9.78;87.84
50087;BME280;35967;50.718;7.050;2023-02-19T17:25:04;101741.63;;;9.84;87.77
50087;BME280;35967;50.718;7.050;2023-02-19T17:35:07;101763.94;;;9.65;88.39
50087;BME280;35967;50.718;7.050;2023-02-19T17:45:12;101782.78;;;9.55;88.59
50087;BME280;35967;50.718;7.050;2023-02-19T17:55:17;101791.34;;;9.57;88.47
50087;BME280;35967;50.718;7.050;2023-02-19T18:05:23;101802.50;;;9.67;88.04
50087;BME280;35967;50.718;7.050;2023-02-19T18:15:26;101808.47;;;9.50;89.39
50087;BME280;35967;50.718;7.050;2023-02-19T18:25:31;101813.59;;;9.28;91.33
50087;BME280;35967;50.718;7.050;2023-02-19T18:35:34;101817.00;;;9.26;92.35
50087;BME280;35967;50.718;7.050;2023-02-19T18:45:38;101824.66;;;9.10;92.68
50087;BME280;35967;50.718;7.050;2023-02-19T18:55:41;101830.72;;;9.28;91.54
50087;BME280;35967;50.718;7.050;2023-02-19T19:05:45;101835.88;;;9.31;91.04
50087;BME280;35967;50.718;7.050;2023-02-19T19:15:49;101845.25;;;9.20;91.30
50087;BME280;35967;50.718;7.050;2023-02-19T19:25:53;101854.66;;;9.21;91.14
50087;BME280;35967;50.718;7.050;2023-02-19T19:35:56;101856.41;;;9.25;91.37
50087;BME280;35967;50.718;7.050;2023-02-19T19:46:02;101867.41;;;8.90;91.29
50087;BME280;35967;50.718;7.050;2023-02-19T19:56:06;101879.44;;;9.03;90.07
50087;BME280;35967;50.718;7.050;2023-02-19T20:06:11;101881.16;;;9.06;89.33
50087;BME280;35967;50.718;7.050;2023-02-19T20:16:14;101869.16;;;9.03;88.61
50087;BME280;35967;50.718;7.050;2023-02-19T20:26:22;101865.03;;;10.51;92.00
50087;BME280;35967;50.718;7.050;2023-02-19T20:36:26;101899.88;;;8.80;88.28
50087;BME280;35967;50.718;7.050;2023-02-19T20:46:32;101891.25;;;8.67;88.37
50087;BME280;35967;50.718;7.050;2023-02-19T20:56:35;101901.63;;;8.89;88.28
50087;BME280;35967;50.718;7.050;2023-02-19T21:06:39;101908.50;;;8.97;87.48
50087;BME280;35967;50.718;7.050;2023-02-19T21:16:42;101893.84;;;8.73;88.24
50087;BME280;35967;50.718;7.050;2023-02-19T21:26:46;101916.91;;;8.64;88.17
50087;BME280;35967;50.718;7.050;2023-02-19T21:36:50;101928.88;;;8.63;87.65
50087;BME280;35967;50.718;7.050;2023-02-19T21:46:54;101945.06;;;8.51;87.54
50087;BME280;35967;50.718;7.050;2023-02-19T21:57:00;101943.97;;;8.26;88.00
50087;BME280;35967;50.718;7.050;2023-02-19T22:07:05;101930.56;;;8.60;86.79
50087;BME280;35967;50.718;7.050;2023-02-19T22:17:08;101936.38;;;8.39;87.24
50087;BME280;35967;50.718;7.050;2023-02-19T22:27:12;101937.34;;;8.51;86.90
50087;BME280;35967;50.718;7.050;2023-02-19T22:37:15;101931.41;;;8.59;86.03
50087;BME280;35967;50.718;7.050;2023-02-19T22:47:19;101940.72;;;8.47;86.32
50087;BME280;35967;50.718;7.050;2023-02-19T22:57:22;101951.59;;;8.18;86.59
50087;BME280;35967;50.718;7.050;2023-02-19T23:07:27;101924.38;;;8.39;85.77
50087;BME280;35967;50.718;7.050;2023-02-19T23:17:30;101915.72;;;8.23;85.37
50087;BME280;35967;50.718;7.050;2023-02-19T23:27:34;101916.63;;;8.25;85.56
50087;BME280;35967;50.718;7.050;2023-02-19T23:37:37;101916.50;;;8.13;85.25
50087;BME280;35967;50.718;7.050;2023-02-19T23:47:41;101899.38;;;8.09;85.24
50087;BME280;35967;50.718;7.050;2023-02-19T23:57:44;101902.69;;;7.98;85.32
